Time;durP1;ratioP1;P1;durP2;ratioP2;P2;SDS_P1;SDS_P2;PMS_P1;PMS_P2;Temp;Humidity;BMP_temperature;BMP_pressure;BME280_temperature;BME280_humidity;BME280_pressure;Samples;Min_cycle;Max_cycle;Signal;HPM_P1;HPM_P2
2022/05/19 00:02:06;;;;;;;;;13.25;13.25;;;;;26.46;52.03;100984.06;5082781;27;45528;-80
2022/05/19 00:04:32;;;;;;;;;45.50;37.75;;;;;26.40;52.04;100974.69;5088756;27;45484;-80
2022/05/19 00:06:58;;;;;;;;;31.25;30.25;;;;;26.40;52.21;100982.06;5081766;27;46112;-80
2022/05/19 00:09:24;;;;;;;;;17.00;14.50;;;;;26.39;51.95;100980.38;5083747;27;45339;-80
2022/05/19 00:11:51;;;;;;;;;40.50;35.25;;;;;26.44;52.04;100988.84;5084298;27;45488;-80
2022/05/19 00:14:17;;;;;;;;;51.00;42.25;;;;;26.43;51.97;100977.06;5089797;27;45531;-80
2022/05/19 00:16:43;;;;;;;;;14.00;13.75;;;;;26.38;52.28;100981.38;5089981;27;46221;-79
2022/05/19 00:19:10;;;;;;;;;38.75;33.25;;;;;26.39;52.25;100991.28;5092011;27;45548;-81
2022/05/19 00:21:35;;;;;;;;;57.75;46.00;;;;;26.40;52.19;100998.44;5091748;27;45571;-81
2022/05/19 00:24:01;;;;;;;;;20.25;19.00;;;;;26.35;52.06;100996.25;5095685;27;45494;-80
2022/05/19 00:26:26;;;;;;;;;28.00;26.50;;;;;26.33;51.97;100992.84;5090603;27;46427;-80
2022/05/19 00:28:51;;;;;;;;;15.75;15.75;;;;;26.33;52.28;100995.56;5090024;27;54680;-81
2022/05/19 00:31:17;;;;;;;;;59.75;47.25;;;;;26.28;52.63;100979.75;5092212;27;45444;-81
2022/05/19 00:33:43;;;;;;;;;107.75;99.25;;;;;26.35;53.30;100993.53;5093259;27;45624;-81
2022/05/19 00:36:19;;;;;;;;;39.00;33.00;;;;;26.30;52.83;100991.34;5093925;27;45518;-81
2022/05/19 00:38:45;;;;;;;;;59.75;46.75;;;;;26.28;53.13;100987.94;5090827;27;45551;-80
2022/05/19 00:41:12;;;;;;;;;9.25;9.25;;;;;26.25;52.94;100982.84;5092638;27;45306;-80
2022/05/19 00:43:40;;;;;;;;;73.33;61.67;;;;;26.19;53.00;100972.66;5090882;27;45552;-80
2022/05/19 00:46:12;;;;;;;;;43.25;36.50;;;;;26.18;53.58;100964.66;5093054;27;45396;-79
2022/05/19 00:48:50;;;;;;;;;79.00;70.33;;;;;26.13;53.55;100967.94;5093400;27;45523;-81
2022/05/19 00:51:17;;;;;;;;;10.50;10.00;;;;;26.09;53.51;100963.88;5093945;27;45298;-79
2022/05/19 00:53:47;;;;;;;;;51.00;41.00;;;;;26.00;53.49;100949.47;5088676;27;45496;-77
2022/05/19 00:56:41;;;;;;;;;84.00;80.00;;;;;25.97;54.03;100952.53;5085835;27;46086;-77
2022/05/19 00:59:13;;;;;;;;;16.25;14.75;;;;;25.90;54.10;100951.56;5088017;27;45491;-78
2022/05/19 01:01:43;;;;;;;;;17.50;17.50;;;;;25.85;54.02;100949.34;5088386;27;45380;-79
2022/05/19 01:04:18;;;;;;;;;33.00;28.50;;;;;25.79;54.75;100946.50;5088422;27;45724;-81
2022/05/19 01:06:48;;;;;;;;;23.75;22.75;;;;;25.75;54.40;100945.16;5088255;27;45769;-78
2022/05/19 01:09:15;;;;;;;;;9.50;8.75;;;;;25.73;54.62;100939.88;5093179;27;45453;-78
2022/05/19 01:11:41;;;;;;;;;11.75;10.75;;;;;25.70;54.80;100942.97;5093802;27;45355;-78
2022/05/19 01:14:08;;;;;;;;;9.75;9.75;;;;;25.68;54.72;100942.31;5086459;27;45464;-78
2022/05/19 01:16:34;;;;;;;;;9.75;9.75;;;;;25.65;54.58;100938.06;5083509;27;46528;-78
2022/05/19 01:19:00;;;;;;;;;44.25;34.50;;;;;25.63;54.79;100931.09;5081823;27;45434;-78
2022/05/19 01:21:28;;;;;;;;;70.33;57.67;;;;;25.60;55.27;100931.47;5083420;27;45362;-78
2022/05/19 01:24:11;;;;;;;;;59.25;49.00;;;;;25.57;55.59;100929.06;5090697;27;45410;-78
2022/05/19 01:26:47;;;;;;;;;47.25;39.00;;;;;25.51;55.59;100927.91;5087044;27;47257;-78
2022/05/19 01:29:15;;;;;;;;;75.00;64.67;;;;;25.46;55.75;100928.47;5082583;27;45363;-78
2022/05/19 01:31:48;;;;;;;;;26.50;26.00;;;;;25.47;55.37;100929.31;5087249;27;45606;-78
2022/05/19 01:34:15;;;;;;;;;14.00;12.75;;;;;25.40;55.39;100923.75;5087005;27;45346;-78
2022/05/19 01:36:41;;;;;;;;;24.00;23.00;;;;;25.36;55.36;100913.38;5090825;27;46156;-78
2022/05/19 01:39:10;;;;;;;;;15.75;15.75;;;;;25.40;56.67;100925.59;5090591;27;45405;-78
2022/05/19 01:41:50;;;;;;;;;55.75;45.25;;;;;25.37;56.40;100926.81;5086604;27;45356;-78
2022/05/19 01:44:26;;;;;;;;;57.75;46.50;;;;;25.28;56.57;100912.38;5090103;27;45599;-78
2022/05/19 01:47:05;;;;;;;;;41.00;34.75;;;;;25.33;56.29;100909.13;5107396;27;47579;-78
2022/05/19 01:49:41;;;;;;;;;26.25;24.00;;;;;25.31;56.41;100911.19;5087289;27;45306;-78
2022/05/19 01:52:14;;;;;;;;;28.00;26.00;;;;;25.28;56.88;100919.72;5083727;27;45448;-80
2022/05/19 01:54:58;;;;;;;;;26.00;26.00;;;;;25.26;57.01;100924.50;5089896;27;45382;-80
2022/05/19 01:57:34;;;;;;;;;50.75;40.75;;;;;25.23;56.90;100924.81;5088891;27;46364;-80
2022/05/19 02:00:11;;;;;;;;;23.00;22.75;;;;;25.20;57.54;100933.38;5090891;27;45523;-78
2022/05/19 02:02:37;;;;;;;;;13.50;13.50;;;;;25.21;56.88;100929.63;5081957;27;45399;-78
2022/05/19 02:05:05;;;;;;;;;69.00;52.75;;;;;25.21;56.91;100932.34;5084952;27;45432;-79
2022/05/19 02:07:36;;;;;;;;;79.33;65.67;;;;;25.20;57.46;100928.75;5084814;27;46164;-79
2022/05/19 02:10:13;;;;;;;;;60.00;46.50;;;;;25.16;57.27;100923.81;5085992;27;45416;-79
2022/05/19 02:12:40;;;;;;;;;38.25;32.25;;;;;25.19;57.22;100929.78;5092272;27;45509;-79
2022/05/19 02:15:10;;;;;;;;;23.25;21.75;;;;;25.20;56.88;100925.19;5086131;27;45462;-80
2022/05/19 02:17:36;;;;;;;;;10.50;8.75;;;;;25.17;56.81;100929.13;5089130;27;45972;-79
2022/05/19 02:20:09;;;;;;;;;18.75;16.25;;;;;25.20;56.69;100925.19;5106863;27;45548;-78
2022/05/19 02:22:40;;;;;;;;;10.00;9.25;;;;;25.18;56.93;100930.81;5079358;27;45424;-77
2022/05/19 02:25:17;;;;;;;;;61.75;49.25;;;;;25.18;57.11;100928.06;5088567;27;45438;-80
2022/05/19 02:27:52;;;;;;;;;15.25;15.25;;;;;25.20;56.98;100933.38;5088750;27;45630;-80
2022/05/19 02:30:21;;;;;;;;;18.75;17.75;;;;;25.21;56.63;100927.75;5090404;27;45449;-80
2022/05/19 02:32:47;;;;;;;;;30.25;28.75;;;;;25.21;57.08;100930.47;5086123;27;45548;-79
2022/05/19 02:35:14;;;;;;;;;9.25;9.25;;;;;25.22;57.01;100921.25;5086628;27;45582;-79
2022/05/19 02:37:40;;;;;;;;;18.25;16.25;;;;;25.22;56.90;100925.88;5088739;27;45589;-79
2022/05/19 02:40:09;;;;;;;;;66.00;52.25;;;;;25.23;57.21;100933.00;5090081;27;45248;-79
2022/05/19 02:42:34;;;;;;;;;27.00;23.00;;;;;25.20;57.48;100925.19;5087021;27;45574;-78
2022/05/19 02:44:59;;;;;;;;;30.25;28.00;;;;;25.17;57.13;100917.34;5089674;27;45592;-78
2022/05/19 02:47:25;;;;;;;;;43.50;35.00;;;;;25.19;57.21;100929.78;5092077;27;45523;-79
2022/05/19 02:49:50;;;;;;;;;36.50;29.00;;;;;25.16;57.17;100923.81;5090655;27;45437;-78
2022/05/19 02:52:16;;;;;;;;;14.25;13.75;;;;;25.16;57.43;100926.53;5091370;27;45441;-78
2022/05/19 02:54:41;;;;;;;;;13.00;11.50;;;;;25.16;57.43;100930.13;5087979;27;45272;-78
2022/05/19 02:57:07;;;;;;;;;10.00;10.00;;;;;25.15;57.50;100930.28;5092476;27;45867;-79
2022/05/19 02:59:32;;;;;;;;;11.75;10.75;;;;;25.05;57.65;100919.59;5091633;27;45304;-79
2022/05/19 03:01:58;;;;;;;;;14.00;12.00;;;;;25.12;57.12;100923.31;5084488;27;45732;-80
2022/05/19 03:04:23;;;;;;;;;43.25;36.25;;;;;25.15;57.36;100936.59;5096924;27;45212;-80
2022/05/19 03:06:49;;;;;;;;;12.75;11.50;;;;;25.05;57.37;100911.44;5093582;27;45508;-80
2022/05/19 03:09:14;;;;;;;;;11.75;10.50;;;;;25.11;57.35;100927.09;5091871;27;45315;-79
2022/05/19 03:11:40;;;;;;;;;11.00;9.75;;;;;25.03;57.69;100913.47;5088962;27;45646;-79
2022/05/19 03:14:05;;;;;;;;;14.25;12.50;;;;;25.08;57.20;100932.88;5095638;27;45746;-77
2022/05/19 03:16:30;;;;;;;;;24.50;21.50;;;;;25.11;57.64;100939.84;5088766;27;46321;-77
2022/05/19 03:18:56;;;;;;;;;16.25;13.75;;;;;25.13;57.44;100940.50;5090673;27;46157;-77
2022/05/19 03:21:21;;;;;;;;;19.00;14.25;;;;;25.11;57.37;100931.66;5093866;27;45344;-77
2022/05/19 03:23:47;;;;;;;;;24.00;21.25;;;;;25.05;56.99;100923.16;5079833;27;45610;-78
2022/05/19 03:26:12;;;;;;;;;12.50;11.00;;;;;25.06;57.36;100919.44;5083124;27;46083;-78
2022/05/19 03:28:37;;;;;;;;;12.50;12.25;;;;;25.05;57.44;100925.91;5082919;27;45397;-78
2022/05/19 03:31:03;;;;;;;;;13.50;11.75;;;;;24.99;57.37;100915.72;5079899;27;45573;-78
2022/05/19 03:33:28;;;;;;;;;9.00;8.75;;;;;25.06;57.39;100927.63;5080759;27;45527;-78
2022/05/19 03:35:58;;;;;;;;;11.50;9.50;;;;;25.04;57.20;100923.38;5082723;27;45421;-78
2022/05/19 03:38:24;;;;;;;;;17.50;16.25;;;;;25.04;57.51;100920.66;5082391;27;45502;-77
2022/05/19 03:40:49;;;;;;;;;15.50;12.50;;;;;25.06;57.24;100927.63;5083423;27;45646;-78
2022/05/19 03:43:14;;;;;;;;;11.25;11.25;;;;;25.04;57.40;100923.38;5081090;27;45331;-78
2022/05/19 03:45:39;;;;;;;;;11.00;11.00;;;;;24.98;57.44;100914.00;5079829;27;53285;-78
2022/05/19 03:48:05;;;;;;;;;12.00;11.00;;;;;25.03;57.41;100927.94;5081786;27;45385;-78
2022/05/19 03:50:30;;;;;;;;;10.00;10.00;;;;;25.01;57.55;100921.81;5087401;27;46157;-78
2022/05/19 03:52:56;;;;;;;;;10.00;10.00;;;;;24.99;57.56;100934.78;5095457;27;45482;-78
2022/05/19 03:55:21;;;;;;;;;11.25;11.00;;;;;24.97;57.49;100925.09;5094444;27;45498;-77
2022/05/19 03:57:47;;;;;;;;;9.50;9.00;;;;;24.95;57.50;100927.16;5094548;27;45399;-78
2022/05/19 04:00:13;;;;;;;;;12.75;11.25;;;;;24.86;57.63;100918.97;5097769;27;45880;-78
2022/05/19 04:02:38;;;;;;;;;9.75;9.75;;;;;24.90;57.35;100926.81;5095161;27;45493;-79
2022/05/19 04:05:05;;;;;;;;;13.00;10.00;;;;;24.94;57.59;100930.88;5093997;27;47282;-79
2022/05/19 04:07:30;;;;;;;;;13.75;11.50;;;;;24.93;57.72;100938.22;5095145;27;45393;-78
2022/05/19 04:09:56;;;;;;;;;10.25;9.25;;;;;24.93;57.19;100931.91;5095648;27;45708;-79
2022/05/19 04:12:22;;;;;;;;;13.75;13.75;;;;;24.91;57.58;100939.41;5097686;27;45388;-79
2022/05/19 04:14:48;;;;;;;;;18.75;18.75;;;;;24.92;57.83;100935.66;5095093;27;45324;-78
2022/05/19 04:17:14;;;;;;;;;12.25;12.25;;;;;24.91;58.01;100934.81;5095386;27;45486;-79
2022/05/19 04:19:39;;;;;;;;;12.50;12.50;;;;;24.88;57.55;100929.72;5095258;27;45559;-79
2022/05/19 04:22:05;;;;;;;;;10.00;9.25;;;;;24.88;57.35;100933.28;5094825;27;45517;-78
2022/05/19 04:24:30;;;;;;;;;8.75;8.50;;;;;24.79;57.29;100914.41;5096544;27;45575;-78
2022/05/19 04:26:55;;;;;;;;;11.25;9.75;;;;;24.82;57.43;100922.22;5096136;27;45267;-78
2022/05/19 04:29:21;;;;;;;;;11.50;11.50;;;;;24.85;57.59;100928.19;5094610;27;45394;-77
2022/05/19 04:31:46;;;;;;;;;11.25;11.25;;;;;24.82;57.54;100927.69;5094436;27;45409;-79
2022/05/19 04:34:11;;;;;;;;;19.25;18.75;;;;;24.78;57.64;100923.63;5092356;27;45450;-79
2022/05/19 04:36:37;;;;;;;;;13.00;12.25;;;;;24.80;57.52;100919.69;5094501;27;45944;-80
2022/05/19 04:39:03;;;;;;;;;12.75;12.75;;;;;24.83;57.42;100921.22;5095920;27;46828;-80
2022/05/19 04:41:28;;;;;;;;;10.75;10.75;;;;;24.81;57.65;100926.00;5094208;27;45633;-79
2022/05/19 04:43:54;;;;;;;;;11.50;11.00;;;;;24.79;57.73;100928.03;5091875;27;58347;-79
2022/05/19 04:46:19;;;;;;;;;10.75;10.25;;;;;24.80;57.59;100938.75;5094004;27;45442;-79
2022/05/19 04:48:44;;;;;;;;;11.00;10.00;;;;;24.74;57.51;100927.72;5093292;27;45593;-79
2022/05/19 04:51:10;;;;;;;;;12.50;11.50;;;;;24.70;57.65;100924.47;5095714;27;45484;-80
2022/05/19 04:53:35;;;;;;;;;10.00;10.00;;;;;24.75;57.47;100935.72;5093804;27;46163;-80
2022/05/19 04:56:01;;;;;;;;;10.50;10.50;;;;;24.80;57.44;100940.66;5094048;27;45392;-79
2022/05/19 04:58:26;;;;;;;;;11.00;11.00;;;;;24.81;57.65;100950.50;5094139;27;45500;-80
2022/05/19 05:00:52;;;;;;;;;11.50;11.50;;;;;24.79;57.69;100963.44;5093942;27;45438;-79
2022/05/19 05:03:18;;;;;;;;;11.25;11.25;;;;;24.72;57.80;100951.53;5095835;27;45320;-80
2022/05/19 05:05:44;;;;;;;;;11.50;11.00;;;;;24.76;57.90;100953.75;5093577;27;45465;-79
2022/05/19 05:08:10;;;;;;;;;10.75;10.75;;;;;24.68;57.45;100959.22;5104024;27;45481;-80
2022/05/19 05:10:35;;;;;;;;;11.25;11.25;;;;;24.76;57.60;100991.03;5093653;27;45488;-80
2022/05/19 05:13:08;;;;;;;;;11.50;11.00;;;;;24.67;58.38;100962.94;5090926;27;47066;-79
2022/05/19 05:15:34;;;;;;;;;9.00;9.00;;;;;24.77;58.00;100988.09;5093632;27;45389;-79
2022/05/19 05:18:00;;;;;;;;;10.50;10.50;;;;;24.75;57.96;100990.19;5094821;27;45534;-80
2022/05/19 05:20:26;;;;;;;;;10.50;10.50;;;;;24.72;57.89;100993.22;5093070;27;45338;-80
2022/05/19 05:22:51;;;;;;;;;13.00;13.00;;;;;24.72;57.67;101041.41;5091618;27;45428;-80
2022/05/19 05:25:17;;;;;;;;;12.50;12.50;;;;;24.77;57.98;101072.53;5093458;27;51602;-79
2022/05/19 05:27:42;;;;;;;;;11.00;11.00;;;;;24.76;57.95;101026.41;5093765;27;47986;-79
2022/05/19 05:30:10;;;;;;;;;14.25;11.75;;;;;24.71;58.32;101010.59;5095807;27;45632;-79
2022/05/19 05:32:35;;;;;;;;;10.50;9.50;;;;;24.73;58.52;101059.44;5093903;27;46248;-78
2022/05/19 05:35:01;;;;;;;;;11.25;11.00;;;;;24.61;58.17;101046.16;5093541;27;45568;-79
2022/05/19 05:37:27;;;;;;;;;10.00;10.00;;;;;24.70;58.47;101047.00;5094049;27;45442;-78
2022/05/19 05:39:52;;;;;;;;;12.75;11.75;;;;;24.68;58.66;101038.19;5094149;27;45462;-78
2022/05/19 05:42:17;;;;;;;;;12.50;11.75;;;;;24.56;58.42;101020.50;5096073;27;45368;-79
2022/05/19 05:44:43;;;;;;;;;16.75;15.25;;;;;24.56;58.57;101017.78;5093547;27;45397;-79
2022/05/19 05:47:08;;;;;;;;;13.00;11.00;;;;;24.67;58.73;101037.31;5093646;27;45480;-79
2022/05/19 05:49:34;;;;;;;;;12.75;12.25;;;;;24.64;58.43;101032.22;5093513;27;45588;-79
2022/05/19 05:51:59;;;;;;;;;16.00;15.00;;;;;24.67;58.73;101036.47;5092511;27;46117;-79
2022/05/19 05:54:24;;;;;;;;;18.00;18.00;;;;;24.69;58.82;101047.19;5095870;27;45342;-79
2022/05/19 05:56:52;;;;;;;;;13.25;12.00;;;;;24.69;58.91;101044.47;5087988;27;45603;-79
2022/05/19 05:59:17;;;;;;;;;12.75;12.75;;;;;24.66;58.81;101041.06;5092180;27;45426;-79
2022/05/19 06:01:42;;;;;;;;;15.25;15.25;;;;;24.60;58.97;101025.41;5093315;27;46452;-79
2022/05/19 06:04:07;;;;;;;;;18.25;13.50;;;;;24.72;58.99;101034.06;5089441;27;45547;-79
2022/05/19 06:06:33;;;;;;;;;14.50;13.00;;;;;24.76;58.69;101031.88;5089078;27;45458;-79
2022/05/19 06:08:58;;;;;;;;;13.00;13.00;;;;;24.77;58.47;101026.22;5086603;27;45957;-79
2022/05/19 06:11:24;;;;;;;;;16.50;15.00;;;;;24.68;58.71;101002.78;5088147;27;59375;-79
2022/05/19 06:13:50;;;;;;;;;14.25;13.25;;;;;24.78;58.55;101021.66;5089317;27;45489;-78
2022/05/19 06:16:16;;;;;;;;;16.00;14.00;;;;;24.81;58.82;101021.31;5087981;27;45551;-78
2022/05/19 06:18:41;;;;;;;;;12.00;12.00;;;;;24.83;58.94;101022.00;5091349;27;45574;-80
2022/05/19 06:21:06;;;;;;;;;14.50;14.50;;;;;24.85;58.73;101026.25;5088819;27;46513;-78
2022/05/19 06:23:32;;;;;;;;;9.00;8.25;;;;;24.83;59.00;101033.72;5091061;27;45439;-78
2022/05/19 06:25:58;;;;;;;;;14.25;13.75;;;;;24.86;58.83;101035.25;5098410;27;45631;-78
2022/05/19 06:28:24;;;;;;;;;13.50;12.00;;;;;24.87;58.41;101040.53;5095406;27;45601;-78
2022/05/19 06:30:49;;;;;;;;;13.25;11.00;;;;;24.88;58.80;101038.66;5094796;27;46366;-78
2022/05/19 06:33:17;;;;;;;;;14.00;14.00;;;;;24.79;58.29;101035.09;5096816;27;45212;-79
2022/05/19 06:35:43;;;;;;;;;12.00;12.00;;;;;24.85;58.90;101045.31;5095557;27;45429;-78
2022/05/19 06:38:08;;;;;;;;;15.00;13.25;;;;;24.84;58.52;101035.41;5096430;27;45669;-78
2022/05/19 06:40:35;;;;;;;;;15.25;15.00;;;;;24.85;58.87;101036.28;5095073;27;50942;-78
2022/05/19 06:43:01;;;;;;;;;14.25;13.00;;;;;24.77;58.95;101009.88;5093738;27;45668;-77
2022/05/19 06:45:29;;;;;;;;;14.75;14.00;;;;;24.83;58.80;101016.53;5094752;27;45803;-77
2022/05/19 06:47:54;;;;;;;;;33.25;30.25;;;;;24.86;57.86;101030.66;5095261;27;45516;-78
2022/05/19 06:50:21;;;;;;;;;17.50;16.50;;;;;24.92;57.90;101042.75;5093033;27;45457;-78
2022/05/19 06:52:53;;;;;;;;;14.75;14.75;;;;;24.87;58.44;101042.41;5096385;27;45433;-78
2022/05/19 06:55:21;;;;;;;;;14.00;14.00;;;;;24.91;58.45;101054.66;5094101;27;45463;-78
2022/05/19 06:57:47;;;;;;;;;16.75;15.75;;;;;24.82;58.71;101037.50;5096188;27;45635;-78
2022/05/19 07:00:17;;;;;;;;;14.50;14.00;;;;;24.83;58.57;101038.31;5097140;27;45558;-78
2022/05/19 07:02:45;;;;;;;;;18.75;18.50;;;;;24.85;58.67;101039.84;5095543;27;45313;-78
2022/05/19 07:05:11;;;;;;;;;15.50;15.50;;;;;24.87;58.96;101043.25;5095569;27;46752;-78
2022/05/19 07:07:37;;;;;;;;;14.25;14.25;;;;;24.88;58.65;101049.56;5085833;27;45499;-78
2022/05/19 07:10:03;;;;;;;;;14.00;14.00;;;;;24.92;58.69;101044.59;5094375;27;45445;-79
2022/05/19 07:12:28;;;;;;;;;16.25;15.25;;;;;24.85;58.78;101039.84;5097080;27;45449;-78
2022/05/19 07:14:54;;;;;;;;;17.00;15.75;;;;;24.90;58.45;101041.22;5097631;27;45453;-78
2022/05/19 07:17:20;;;;;;;;;12.75;12.50;;;;;24.88;58.57;101036.78;5093980;27;45918;-78
2022/05/19 07:22:31;;;;;;;;;15.75;15.75;;;;;25.02;58.67;101058.91;5095598;27;45398;-78
2022/05/19 07:25:00;;;;;;;;;17.75;16.25;;;;;25.01;58.28;101060.75;5095524;27;45248;-77
2022/05/19 07:27:25;;;;;;;;;15.75;15.25;;;;;24.91;58.32;101041.03;5097493;27;45321;-77
2022/05/19 07:29:50;;;;;;;;;19.75;17.25;;;;;25.02;58.49;101057.03;5093779;27;45550;-79
2022/05/19 07:32:16;;;;;;;;;16.75;14.75;;;;;24.97;58.28;101043.06;5095676;27;45287;-77
2022/05/19 07:34:41;;;;;;;;;15.50;15.50;;;;;24.98;58.26;101047.47;5095872;27;45517;-77
2022/05/19 07:37:07;;;;;;;;;17.50;17.50;;;;;24.93;58.26;101039.00;5095548;27;45389;-77
2022/05/19 07:39:33;;;;;;;;;18.00;16.00;;;;;24.90;58.16;101033.06;5095593;27;45520;-77
2022/05/19 07:41:59;;;;;;;;;14.00;14.00;;;;;24.91;58.28;101035.59;5095401;27;45409;-77
2022/05/19 07:44:27;;;;;;;;;18.00;18.00;;;;;24.94;57.87;101051.56;5094955;27;45614;-78
2022/05/19 07:46:53;;;;;;;;;15.75;15.50;;;;;24.88;58.03;101061.28;5094835;27;45500;-78
2022/05/19 07:49:18;;;;;;;;;17.50;16.50;;;;;24.90;57.88;101061.13;5093429;27;46119;-77
2022/05/19 07:51:44;;;;;;;;;15.25;15.00;;;;;24.98;58.30;101066.56;5095631;27;45414;-77
2022/05/19 07:54:19;;;;;;;;;17.75;16.25;;;;;24.98;58.39;101066.56;5097246;27;45361;-77
2022/05/19 07:56:45;;;;;;;;;23.25;21.50;;;;;25.02;57.91;101059.75;5095355;27;45572;-77
2022/05/19 07:59:11;;;;;;;;;18.25;15.00;;;;;25.01;57.88;101066.19;5095046;27;46396;-77
2022/05/19 08:01:39;;;;;;;;;17.00;17.00;;;;;25.05;57.97;101075.75;5095361;27;45604;-77
2022/05/19 08:04:05;;;;;;;;;14.50;14.00;;;;;25.08;58.08;101078.09;5093173;27;45627;-77
2022/05/19 08:06:33;;;;;;;;;16.25;15.00;;;;;25.13;58.33;101093.94;5095799;27;45467;-77
2022/05/19 08:08:59;;;;;;;;;16.50;15.50;;;;;25.14;57.91;101083.91;5095509;27;46124;-77
2022/05/19 08:11:26;;;;;;;;;14.50;14.50;;;;;25.16;57.83;101084.56;5096226;27;45431;-78
2022/05/19 08:16:35;;;;;;;;;16.50;14.25;;;;;25.19;57.74;101078.81;5093434;27;45347;-77
2022/05/19 08:19:01;;;;;;;;;15.50;14.25;;;;;25.29;57.72;101095.84;5096050;27;45665;-77
2022/05/19 08:21:27;;;;;;;;;16.25;15.00;;;;;25.35;57.61;101088.81;5094846;27;45638;-77
2022/05/19 08:23:52;;;;;;;;;18.00;15.00;;;;;25.29;57.25;101069.41;5094396;27;45365;-76
2022/05/19 08:26:18;;;;;;;;;18.75;15.25;;;;;25.44;57.13;101110.44;5092134;27;45487;-76
2022/05/19 08:28:45;;;;;;;;;15.50;15.25;;;;;25.49;56.52;101108.03;5090128;27;45440;-77
2022/05/19 08:31:16;;;;;;;;;16.25;15.00;;;;;25.47;56.16;101087.41;5091275;27;45438;-78
2022/05/19 08:33:44;;;;;;;;;15.00;14.75;;;;;25.57;56.68;101101.72;5091467;27;45700;-77
2022/05/19 08:36:11;;;;;;;;;15.00;14.75;;;;;25.63;55.94;101102.88;5095125;27;45453;-77
2022/05/19 08:38:38;;;;;;;;;12.75;12.75;;;;;25.65;56.11;101106.28;5089909;27;45524;-77
2022/05/19 08:41:23;;;;;;;;;15.00;14.00;;;;;25.76;56.07;101125.00;5093516;27;45302;-77
2022/05/19 08:43:59;;;;;;;;;16.50;15.25;;;;;25.74;55.88;101113.41;5093980;27;45647;-78
2022/05/19 08:46:32;;;;;;;;;21.00;20.00;;;;;25.75;55.74;101115.09;5093105;27;45533;-78
2022/05/19 08:49:05;;;;;;;;;18.50;15.25;;;;;25.92;56.12;101159.56;5078825;27;45714;-78
2022/05/19 08:51:40;;;;;;;;;16.25;16.25;;;;;25.93;56.21;101164.03;5095340;27;45525;-77
2022/05/19 08:54:09;;;;;;;;;9.75;9.75;;;;;25.99;56.00;101176.09;5093108;27;45430;-77
2022/05/19 08:56:40;;;;;;;;;16.75;15.00;;;;;25.90;55.55;101161.63;5093899;27;45502;-77
2022/05/19 08:59:23;;;;;;;;;15.25;14.00;;;;;25.93;54.75;101183.13;5091167;27;48271;-77
2022/05/19 09:02:04;;;;;;;;;14.25;13.75;;;;;25.94;54.37;101187.53;5094173;27;45472;-77
2022/05/19 09:04:59;;;;;;;;;15.50;13.75;;;;;25.93;54.41;101199.50;5094281;27;45463;-77
2022/05/19 09:10:53;;;;;;;;;14.75;13.50;;;;;25.92;54.03;101201.34;5092397;27;45393;-77
2022/05/19 09:13:37;;;;;;;;;11.25;11.25;;;;;25.92;53.41;101203.22;5087134;27;45448;-77
2022/05/19 09:16:24;;;;;;;;;15.25;13.50;;;;;25.93;53.75;101205.78;5092304;27;45541;-77
2022/05/19 09:19:03;;;;;;;;;13.25;11.25;;;;;25.93;53.79;101203.06;5106522;27;45498;-77
2022/05/19 09:21:28;;;;;;;;;10.00;10.00;;;;;25.86;53.97;101199.34;5091514;27;45329;-77
2022/05/19 09:23:54;;;;;;;;;9.75;9.75;;;;;25.99;53.45;101222.47;5094751;27;45208;-77
2022/05/19 09:26:31;;;;;;;;;10.00;9.00;;;;;25.96;52.88;101240.06;5092310;27;45385;-77
2022/05/19 09:29:02;;;;;;;;;9.75;9.75;;;;;25.95;52.88;101237.50;5099664;27;45273;-77
2022/05/19 09:32:15;;;;;;;;;10.00;9.00;;;;;25.98;52.55;101245.31;5091296;27;45559;-77
2022/05/19 09:34:44;;;;;;;;;9.00;7.25;;;;;25.94;52.00;101247.56;5000437;28;45410;-77
2022/05/19 09:37:11;;;;;;;;;9.25;8.00;;;;;25.93;51.76;101254.06;5000993;28;45380;-78
2022/05/19 09:39:51;;;;;;;;;8.75;8.75;;;;;25.84;51.53;101247.72;5004000;28;45676;-78
2022/05/19 09:42:21;;;;;;;;;10.50;10.50;;;;;25.79;51.27;101255.59;5009648;28;45610;-77
2022/05/19 09:44:54;;;;;;;;;13.75;12.50;;;;;25.83;51.54;101265.13;4999542;28;45519;-78
2022/05/19 09:47:28;;;;;;;;;15.50;14.00;;;;;25.79;51.19;101292.94;5006540;28;45504;-77
2022/05/19 09:50:07;;;;;;;;;16.00;15.00;;;;;25.67;50.91;101286.97;4999548;28;45350;-78
2022/05/19 09:52:33;;;;;;;;;14.75;14.00;;;;;25.67;50.56;101301.44;5005892;28;47002;-77
2022/05/19 09:55:05;;;;;;;;;14.75;13.25;;;;;25.59;50.85;101292.41;5010605;28;45586;-77
2022/05/19 09:57:42;;;;;;;;;14.50;13.00;;;;;25.62;50.82;101309.28;5009268;28;45362;-77
2022/05/19 10:00:18;;;;;;;;;13.75;13.75;;;;;25.58;50.87;101316.09;5006628;28;45513;-77
2022/05/19 10:02:46;;;;;;;;;16.75;16.25;;;;;25.54;50.54;101319.34;5000047;28;46223;-77
2022/05/19 10:05:29;;;;;;;;;13.00;13.00;;;;;25.50;50.54;101340.66;5038783;27;45578;-77
2022/05/19 10:08:00;;;;;;;;;13.50;12.50;;;;;25.42;50.60;101316.09;5095492;27;45478;-77
2022/05/19 10:10:28;;;;;;;;;13.50;11.75;;;;;25.41;50.91;101312.50;5092789;27;49154;-77
2022/05/19 10:13:00;;;;;;;;;12.00;12.00;;;;;25.48;50.73;101318.16;5090667;27;46342;-76
2022/05/19 10:15:36;;;;;;;;;9.25;9.25;;;;;25.47;50.57;101317.31;5091265;27;45322;-77
2022/05/19 10:18:30;;;;;;;;;10.25;10.00;;;;;25.47;50.43;101309.13;5094686;27;45282;-77
2022/05/19 10:21:19;;;;;;;;;9.00;9.00;;;;;25.46;50.68;101301.94;5091947;27;45434;-77
2022/05/19 10:24:04;;;;;;;;;8.50;8.00;;;;;25.52;50.29;101335.88;5092193;27;46672;-76
2022/05/19 10:26:47;;;;;;;;;9.00;9.00;;;;;25.38;50.61;101326.50;5088441;27;45481;-77
2022/05/19 10:32:24;;;;;;;;;11.00;11.00;;;;;25.47;51.04;101347.28;5090306;27;45390;-77
2022/05/19 10:35:18;;;;;;;;;7.25;7.00;;;;;25.55;50.96;101353.78;5090931;27;46452;-77
2022/05/19 10:38:05;;;;;;;;;7.75;7.75;;;;;25.64;50.90;101364.53;5091714;27;45425;-76
2022/05/19 10:40:49;;;;;;;;;10.00;9.25;;;;;25.73;50.59;101357.19;5091536;27;45492;-77
2022/05/19 10:43:27;;;;;;;;;7.50;7.50;;;;;25.79;49.87;101353.78;5087219;27;45537;-77
2022/05/19 10:45:56;;;;;;;;;7.00;7.00;;;;;25.84;50.49;101350.53;5090173;27;45533;-76
2022/05/19 10:48:47;;;;;;;;;5.75;5.25;;;;;25.91;49.78;101348.88;5092304;27;45397;-77
2022/05/19 10:51:31;;;;;;;;;8.50;4.75;;;;;26.00;48.62;101350.56;5092682;27;45735;-77
2022/05/19 10:54:17;;;;;;;;;4.75;3.75;;;;;26.07;47.91;101343.38;5106280;27;45719;-77
2022/05/19 10:57:01;;;;;;;;;6.00;6.00;;;;;26.16;47.92;101344.22;5090726;27;45350;-77
2022/05/19 10:59:55;;;;;;;;;3.00;3.00;;;;;26.28;46.59;101356.47;5092211;27;45431;-78
2022/05/19 11:02:43;;;;;;;;;4.00;3.00;;;;;26.38;46.32;101352.69;5087231;27;45559;-77
2022/05/19 11:05:34;;;;;;;;;2.00;2.00;;;;;26.44;45.88;101360.19;5089894;27;45385;-78
2022/05/19 11:08:24;;;;;;;;;6.00;3.00;;;;;26.52;46.03;101352.81;5091472;27;47249;-78
2022/05/19 11:11:12;;;;;;;;;4.00;2.50;;;;;26.61;45.06;101336.44;5089021;27;45442;-77
2022/05/19 11:14:03;;;;;;;;;2.00;2.00;;;;;26.72;45.20;101336.91;5092271;27;45471;-77
2022/05/19 11:16:53;;;;;;;;;2.75;2.75;;;;;26.81;45.11;101336.84;5093636;27;45552;-77
2022/05/19 11:19:27;;;;;;;;;3.00;3.00;;;;;26.73;44.36;101302.25;5091148;27;45344;-78
2022/05/19 11:21:58;;;;;;;;;3.00;3.00;;;;;26.92;44.45;101326.38;5093986;27;45508;-78
2022/05/19 11:27:38;;;;;;;;;3.00;3.00;;;;;27.01;43.12;101334.53;5092959;27;45675;-78
2022/05/19 11:30:18;;;;;;;;;3.00;1.50;;;;;26.98;43.65;101327.53;5094687;27;47174;-75
2022/05/19 11:32:52;;;;;;;;;3.25;2.00;;;;;27.03;42.52;101327.00;5093874;27;45476;-75
2022/05/19 11:35:29;;;;;;;;;3.00;2.00;;;;;27.01;42.76;101324.44;5090656;27;45457;-75
2022/05/19 11:38:17;;;;;;;;;2.00;2.00;;;;;26.99;42.86;101324.63;5095022;27;46011;-76
2022/05/19 11:40:53;;;;;;;;;3.25;2.25;;;;;27.03;42.61;101318.81;5094920;27;46553;-75